sensor_id;sensor_type;location;lat;lon;timestamp;temperature;humidity
19248;DHT22;9758;48.640;8.148;2023-06-04T00:01:59;21.20;32.90
19248;DHT22;9758;48.640;8.148;2023-06-04T00:04:27;21.20;32.90
19248;DHT22;9758;48.640;8.148;2023-06-04T00:06:55;21.10;33.00
19248;DHT22;9758;48.640;8.148;2023-06-04T00:09:22;21.00;32.90
19248;DHT22;9758;48.640;8.148;2023-06-04T00:11:49;21.00;33.00
19248;DHT22;9758;48.640;8.148;2023-06-04T00:14:16;20.90;33.00
19248;DHT22;9758;48.640;8.148;2023-06-04T00:16:43;20.90;33.10
19248;DHT22;9758;48.640;8.148;2023-06-04T00:19:10;20.90;33.70
19248;DHT22;9758;48.640;8.148;2023-06-04T00:21:38;20.80;33.10
19248;DHT22;9758;48.640;8.148;2023-06-04T00:24:05;20.80;33.20
19248;DHT22;9758;48.640;8.148;2023-06-04T00:26:32;20.80;33.30
19248;DHT22;9758;48.640;8.148;2023-06-04T00:29:00;20.70;33.30
19248;DHT22;9758;48.640;8.148;2023-06-04T00:31:26;20.70;33.30
19248;DHT22;9758;48.640;8.148;2023-06-04T00:33:53;20.60;33.30
19248;DHT22;9758;48.640;8.148;2023-06-04T00:36:20;20.60;33.40
19248;DHT22;9758;48.640;8.148;2023-06-04T00:38:48;20.50;33.40
19248;DHT22;9758;48.640;8.148;2023-06-04T00:41:15;20.50;33.50
19248;DHT22;9758;48.640;8.148;2023-06-04T00:43:42;20.40;33.50
19248;DHT22;9758;48.640;8.148;2023-06-04T00:46:11;20.30;33.60
19248;DHT22;9758;48.640;8.148;2023-06-04T00:48:43;20.30;33.60
19248;DHT22;9758;48.640;8.148;2023-06-04T00:51:10;20.20;33.70
19248;DHT22;9758;48.640;8.148;2023-06-04T00:53:37;20.10;33.70
19248;DHT22;9758;48.640;8.148;2023-06-04T00:56:06;20.10;33.90
19248;DHT22;9758;48.640;8.148;2023-06-04T00:58:33;20.00;34.00
19248;DHT22;9758;48.640;8.148;2023-06-04T01:01:05;19.90;34.00
19248;DHT22;9758;48.640;8.148;2023-06-04T01:03:35;19.80;34.20
19248;DHT22;9758;48.640;8.148;2023-06-04T01:06:08;19.70;34.20
19248;DHT22;9758;48.640;8.148;2023-06-04T01:08:40;19.70;34.30
19248;DHT22;9758;48.640;8.148;2023-06-04T01:11:10;19.60;34.30
19248;DHT22;9758;48.640;8.148;2023-06-04T01:13:36;19.60;34.40
19248;DHT22;9758;48.640;8.148;2023-06-04T01:16:04;19.60;34.50
19248;DHT22;9758;48.640;8.148;2023-06-04T01:18:31;19.60;34.50
19248;DHT22;9758;48.640;8.148;2023-06-04T01:21:04;19.50;34.70
19248;DHT22;9758;48.640;8.148;2023-06-04T01:23:37;19.40;34.70
19248;DHT22;9758;48.640;8.148;2023-06-04T01:26:18;19.40;34.70
19248;DHT22;9758;48.640;8.148;2023-06-04T01:28:46;19.40;34.80
19248;DHT22;9758;48.640;8.148;2023-06-04T01:31:13;19.40;34.80
19248;DHT22;9758;48.640;8.148;2023-06-04T01:33:40;19.30;34.80
19248;DHT22;9758;48.640;8.148;2023-06-04T01:36:07;19.30;34.90
19248;DHT22;9758;48.640;8.148;2023-06-04T01:38:36;19.30;34.80
19248;DHT22;9758;48.640;8.148;2023-06-04T01:41:02;19.20;34.90
19248;DHT22;9758;48.640;8.148;2023-06-04T01:43:30;19.20;34.90
19248;DHT22;9758;48.640;8.148;2023-06-04T01:46:00;19.20;35.00
19248;DHT22;9758;48.640;8.148;2023-06-04T01:48:27;19.20;35.00
19248;DHT22;9758;48.640;8.148;2023-06-04T01:50:53;19.10;35.00
19248;DHT22;9758;48.640;8.148;2023-06-04T01:53:20;19.10;35.00
19248;DHT22;9758;48.640;8.148;2023-06-04T01:55:47;19.10;35.10
19248;DHT22;9758;48.640;8.148;2023-06-04T01:58:14;19.00;35.10
19248;DHT22;9758;48.640;8.148;2023-06-04T02:00:44;19.00;35.20
19248;DHT22;9758;48.640;8.148;2023-06-04T02:03:11;19.00;35.10
19248;DHT22;9758;48.640;8.148;2023-06-04T02:05:41;19.00;35.20
19248;DHT22;9758;48.640;8.148;2023-06-04T02:08:10;18.90;35.20
19248;DHT22;9758;48.640;8.148;2023-06-04T02:10:37;18.90;35.30
19248;DHT22;9758;48.640;8.148;2023-06-04T02:13:04;18.80;35.30
19248;DHT22;9758;48.640;8.148;2023-06-04T02:15:33;18.80;35.40
19248;DHT22;9758;48.640;8.148;2023-06-04T02:18:13;18.80;35.40
19248;DHT22;9758;48.640;8.148;2023-06-04T02:20:41;18.80;35.60
19248;DHT22;9758;48.640;8.148;2023-06-04T02:23:08;18.80;35.60
19248;DHT22;9758;48.640;8.148;2023-06-04T02:25:34;18.80;35.50
19248;DHT22;9758;48.640;8.148;2023-06-04T02:28:01;18.80;35.60
19248;DHT22;9758;48.640;8.148;2023-06-04T02:30:28;18.80;35.80
19248;DHT22;9758;48.640;8.148;2023-06-04T02:32:55;18.90;35.70
19248;DHT22;9758;48.640;8.148;2023-06-04T02:35:23;18.90;36.10
19248;DHT22;9758;48.640;8.148;2023-06-04T02:37:50;19.00;35.80
19248;DHT22;9758;48.640;8.148;2023-06-04T02:40:17;19.10;35.80
19248;DHT22;9758;48.640;8.148;2023-06-04T02:42:43;19.20;35.80
19248;DHT22;9758;48.640;8.148;2023-06-04T02:45:10;19.30;35.60
19248;DHT22;9758;48.640;8.148;2023-06-04T02:47:38;19.40;35.70
19248;DHT22;9758;48.640;8.148;2023-06-04T02:50:05;19.40;35.60
19248;DHT22;9758;48.640;8.148;2023-06-04T02:52:34;19.50;35.50
19248;DHT22;9758;48.640;8.148;2023-06-04T02:55:03;19.50;35.40
19248;DHT22;9758;48.640;8.148;2023-06-04T02:57:30;19.60;35.40
19248;DHT22;9758;48.640;8.148;2023-06-04T02:59:57;19.60;35.40
19248;DHT22;9758;48.640;8.148;2023-06-04T03:02:23;19.70;35.30
19248;DHT22;9758;48.640;8.148;2023-06-04T03:04:50;19.70;35.30
19248;DHT22;9758;48.640;8.148;2023-06-04T03:07:18;19.70;35.30
19248;DHT22;9758;48.640;8.148;2023-06-04T03:09:47;19.70;35.20
19248;DHT22;9758;48.640;8.148;2023-06-04T03:12:14;19.80;35.30
19248;DHT22;9758;48.640;8.148;2023-06-04T03:14:41;19.70;35.30
19248;DHT22;9758;48.640;8.148;2023-06-04T03:17:07;19.70;35.80
19248;DHT22;9758;48.640;8.148;2023-06-04T03:19:36;19.60;35.50
19248;DHT22;9758;48.640;8.148;2023-06-04T03:22:04;19.50;35.40
19248;DHT22;9758;48.640;8.148;2023-06-04T03:24:33;19.40;35.50
19248;DHT22;9758;48.640;8.148;2023-06-04T03:27:04;19.30;35.60
19248;DHT22;9758;48.640;8.148;2023-06-04T03:29:31;19.30;35.60
19248;DHT22;9758;48.640;8.148;2023-06-04T03:31:58;19.30;35.80
19248;DHT22;9758;48.640;8.148;2023-06-04T03:34:24;19.20;35.70
19248;DHT22;9758;48.640;8.148;2023-06-04T03:36:51;19.30;35.80
19248;DHT22;9758;48.640;8.148;2023-06-04T03:39:18;19.20;35.80
19248;DHT22;9758;48.640;8.148;2023-06-04T03:41:45;19.10;35.80
19248;DHT22;9758;48.640;8.148;2023-06-04T03:44:14;19.10;35.90
19248;DHT22;9758;48.640;8.148;2023-06-04T03:46:41;19.10;36.00
19248;DHT22;9758;48.640;8.148;2023-06-04T03:49:08;19.00;36.00
19248;DHT22;9758;48.640;8.148;2023-06-04T03:51:35;19.00;36.00
19248;DHT22;9758;48.640;8.148;2023-06-04T03:54:02;18.90;36.00
19248;DHT22;9758;48.640;8.148;2023-06-04T03:56:29;18.90;36.10
19248;DHT22;9758;48.640;8.148;2023-06-04T03:58:56;18.90;36.10
19248;DHT22;9758;48.640;8.148;2023-06-04T04:01:24;18.80;36.20
19248;DHT22;9758;48.640;8.148;2023-06-04T04:03:52;18.80;36.20
19248;DHT22;9758;48.640;8.148;2023-06-04T04:06:19;18.80;36.30
19248;DHT22;9758;48.640;8.148;2023-06-04T04:08:46;18.70;36.30
19248;DHT22;9758;48.640;8.148;2023-06-04T04:11:19;18.70;36.40
19248;DHT22;9758;48.640;8.148;2023-06-04T04:13:46;18.70;36.40
19248;DHT22;9758;48.640;8.148;2023-06-04T04:16:13;18.70;36.50
19248;DHT22;9758;48.640;8.148;2023-06-04T04:18:42;18.70;36.50
19248;DHT22;9758;48.640;8.148;2023-06-04T04:21:09;18.70;36.50
19248;DHT22;9758;48.640;8.148;2023-06-04T04:23:38;18.70;36.60
19248;DHT22;9758;48.640;8.148;2023-06-04T04:26:07;18.60;36.70
19248;DHT22;9758;48.640;8.148;2023-06-04T04:28:33;18.60;36.80
19248;DHT22;9758;48.640;8.148;2023-06-04T04:31:00;18.50;36.80
19248;DHT22;9758;48.640;8.148;2023-06-04T04:33:28;18.60;36.90
19248;DHT22;9758;48.640;8.148;2023-06-04T04:35:59;18.60;37.00
19248;DHT22;9758;48.640;8.148;2023-06-04T04:38:26;18.60;36.90
19248;DHT22;9758;48.640;8.148;2023-06-04T04:40:54;18.70;36.90
19248;DHT22;9758;48.640;8.148;2023-06-04T04:43:29;18.70;36.90
19248;DHT22;9758;48.640;8.148;2023-06-04T04:45:56;18.70;36.90
19248;DHT22;9758;48.640;8.148;2023-06-04T04:48:23;18.70;36.80
19248;DHT22;9758;48.640;8.148;2023-06-04T04:50:50;18.70;36.80
19248;DHT22;9758;48.640;8.148;2023-06-04T04:53:18;18.70;36.80
19248;DHT22;9758;48.640;8.148;2023-06-04T04:55:45;18.70;36.90
19248;DHT22;9758;48.640;8.148;2023-06-04T04:58:12;18.80;37.10
19248;DHT22;9758;48.640;8.148;2023-06-04T05:00:39;18.80;36.90
19248;DHT22;9758;48.640;8.148;2023-06-04T05:03:06;18.70;36.90
19248;DHT22;9758;48.640;8.148;2023-06-04T05:05:33;18.80;37.00
19248;DHT22;9758;48.640;8.148;2023-06-04T05:07:59;18.80;37.10
19248;DHT22;9758;48.640;8.148;2023-06-04T05:10:28;18.80;37.10
19248;DHT22;9758;48.640;8.148;2023-06-04T05:12:55;18.90;37.20
19248;DHT22;9758;48.640;8.148;2023-06-04T05:15:22;18.90;37.20
19248;DHT22;9758;48.640;8.148;2023-06-04T05:17:50;19.00;37.30
19248;DHT22;9758;48.640;8.148;2023-06-04T05:20:17;19.10;37.30
19248;DHT22;9758;48.640;8.148;2023-06-04T05:22:45;19.10;37.20
19248;DHT22;9758;48.640;8.148;2023-06-04T05:25:12;19.10;37.10
19248;DHT22;9758;48.640;8.148;2023-06-04T05:27:40;19.10;37.20
19248;DHT22;9758;48.640;8.148;2023-06-04T05:30:09;19.10;37.30
19248;DHT22;9758;48.640;8.148;2023-06-04T05:32:36;19.20;37.30
19248;DHT22;9758;48.640;8.148;2023-06-04T05:35:07;19.30;37.40
19248;DHT22;9758;48.640;8.148;2023-06-04T05:37:35;19.40;37.40
19248;DHT22;9758;48.640;8.148;2023-06-04T05:40:03;19.40;37.30
19248;DHT22;9758;48.640;8.148;2023-06-04T05:42:32;19.50;37.40
19248;DHT22;9758;48.640;8.148;2023-06-04T05:45:00;19.60;37.40
19248;DHT22;9758;48.640;8.148;2023-06-04T05:47:27;19.70;37.40
19248;DHT22;9758;48.640;8.148;2023-06-04T05:49:55;19.80;37.40
19248;DHT22;9758;48.640;8.148;2023-06-04T05:52:22;19.80;37.50
19248;DHT22;9758;48.640;8.148;2023-06-04T05:54:49;19.80;37.50
19248;DHT22;9758;48.640;8.148;2023-06-04T05:57:16;19.80;37.50
19248;DHT22;9758;48.640;8.148;2023-06-04T05:59:42;19.70;37.60
19248;DHT22;9758;48.640;8.148;2023-06-04T06:02:10;19.70;37.60
19248;DHT22;9758;48.640;8.148;2023-06-04T06:04:37;19.60;37.50
19248;DHT22;9758;48.640;8.148;2023-06-04T06:07:04;19.60;37.60
19248;DHT22;9758;48.640;8.148;2023-06-04T06:09:31;19.60;38.10
19248;DHT22;9758;48.640;8.148;2023-06-04T06:11:58;19.60;37.80
19248;DHT22;9758;48.640;8.148;2023-06-04T06:14:25;19.70;37.90
19248;DHT22;9758;48.640;8.148;2023-06-04T06:16:51;19.70;37.80
19248;DHT22;9758;48.640;8.148;2023-06-04T06:19:20;19.80;37.80
19248;DHT22;9758;48.640;8.148;2023-06-04T06:21:47;19.90;37.70
19248;DHT22;9758;48.640;8.148;2023-06-04T06:24:14;20.10;38.00
19248;DHT22;9758;48.640;8.148;2023-06-04T06:26:40;20.20;37.70
19248;DHT22;9758;48.640;8.148;2023-06-04T06:29:08;20.20;37.80
19248;DHT22;9758;48.640;8.148;2023-06-04T06:31:34;20.20;37.70
19248;DHT22;9758;48.640;8.148;2023-06-04T06:34:01;20.20;37.70
19248;DHT22;9758;48.640;8.148;2023-06-04T06:36:29;20.30;37.90
19248;DHT22;9758;48.640;8.148;2023-06-04T06:38:56;20.30;37.90
19248;DHT22;9758;48.640;8.148;2023-06-04T06:41:23;20.40;37.90
19248;DHT22;9758;48.640;8.148;2023-06-04T06:43:51;20.40;37.90
19248;DHT22;9758;48.640;8.148;2023-06-04T06:46:18;20.50;37.90
19248;DHT22;9758;48.640;8.148;2023-06-04T06:48:44;20.50;37.80
19248;DHT22;9758;48.640;8.148;2023-06-04T06:51:19;20.60;38.00
19248;DHT22;9758;48.640;8.148;2023-06-04T06:53:49;20.60;37.70
19248;DHT22;9758;48.640;8.148;2023-06-04T06:56:16;20.70;37.70
19248;DHT22;9758;48.640;8.148;2023-06-04T06:58:43;20.70;37.70
19248;DHT22;9758;48.640;8.148;2023-06-04T07:01:11;20.80;37.60
19248;DHT22;9758;48.640;8.148;2023-06-04T07:03:38;20.90;37.50
19248;DHT22;9758;48.640;8.148;2023-06-04T07:06:05;21.00;37.40
19248;DHT22;9758;48.640;8.148;2023-06-04T07:08:32;21.10;37.50
19248;DHT22;9758;48.640;8.148;2023-06-04T07:11:02;21.10;37.40
19248;DHT22;9758;48.640;8.148;2023-06-04T07:13:29;21.20;37.40
19248;DHT22;9758;48.640;8.148;2023-06-04T07:15:57;21.20;37.30
19248;DHT22;9758;48.640;8.148;2023-06-04T07:18:24;21.30;37.40
19248;DHT22;9758;48.640;8.148;2023-06-04T07:20:51;21.30;37.60
19248;DHT22;9758;48.640;8.148;2023-06-04T07:23:18;21.30;37.60
19248;DHT22;9758;48.640;8.148;2023-06-04T07:25:44;21.20;37.60
19248;DHT22;9758;48.640;8.148;2023-06-04T07:28:13;21.20;37.70
19248;DHT22;9758;48.640;8.148;2023-06-04T07:30:40;21.20;37.60
19248;DHT22;9758;48.640;8.148;2023-06-04T07:33:07;21.30;37.60
19248;DHT22;9758;48.640;8.148;2023-06-04T07:35:34;21.40;37.60
19248;DHT22;9758;48.640;8.148;2023-06-04T07:38:00;21.50;37.50
19248;DHT22;9758;48.640;8.148;2023-06-04T07:40:27;21.60;37.30
19248;DHT22;9758;48.640;8.148;2023-06-04T07:42:54;21.70;37.50
19248;DHT22;9758;48.640;8.148;2023-06-04T07:45:22;21.70;37.30
19248;DHT22;9758;48.640;8.148;2023-06-04T07:47:49;21.80;37.40
19248;DHT22;9758;48.640;8.148;2023-06-04T07:50:16;21.80;37.30
19248;DHT22;9758;48.640;8.148;2023-06-04T07:52:42;21.80;37.20
19248;DHT22;9758;48.640;8.148;2023-06-04T07:55:09;21.80;37.20
19248;DHT22;9758;48.640;8.148;2023-06-04T07:57:36;21.80;37.20
19248;DHT22;9758;48.640;8.148;2023-06-04T08:00:03;21.90;37.10
19248;DHT22;9758;48.640;8.148;2023-06-04T08:02:32;22.00;37.20
19248;DHT22;9758;48.640;8.148;2023-06-04T08:04:59;22.10;37.10
19248;DHT22;9758;48.640;8.148;2023-06-04T08:07:27;22.10;37.10
19248;DHT22;9758;48.640;8.148;2023-06-04T08:09:54;22.10;37.10
19248;DHT22;9758;48.640;8.148;2023-06-04T08:12:21;22.20;37.10
19248;DHT22;9758;48.640;8.148;2023-06-04T08:14:48;22.30;37.00
19248;DHT22;9758;48.640;8.148;2023-06-04T08:17:15;22.40;36.80
19248;DHT22;9758;48.640;8.148;2023-06-04T08:19:43;22.40;36.70
19248;DHT22;9758;48.640;8.148;2023-06-04T08:22:10;22.40;36.70
19248;DHT22;9758;48.640;8.148;2023-06-04T08:24:37;22.40;36.70
19248;DHT22;9758;48.640;8.148;2023-06-04T08:27:04;22.30;36.70
19248;DHT22;9758;48.640;8.148;2023-06-04T08:29:33;22.40;36.70
19248;DHT22;9758;48.640;8.148;2023-06-04T08:32:00;22.50;36.80
19248;DHT22;9758;48.640;8.148;2023-06-04T08:34:26;22.60;36.70
19248;DHT22;9758;48.640;8.148;2023-06-04T08:36:55;22.70;36.60
19248;DHT22;9758;48.640;8.148;2023-06-04T08:39:22;22.80;36.60
19248;DHT22;9758;48.640;8.148;2023-06-04T08:41:52;23.00;36.70
19248;DHT22;9758;48.640;8.148;2023-06-04T08:44:19;23.20;36.60
19248;DHT22;9758;48.640;8.148;2023-06-04T08:46:51;23.30;36.30
19248;DHT22;9758;48.640;8.148;2023-06-04T08:49:19;23.50;36.10
19248;DHT22;9758;48.640;8.148;2023-06-04T08:51:47;23.50;36.00
19248;DHT22;9758;48.640;8.148;2023-06-04T08:54:16;23.60;36.00
19248;DHT22;9758;48.640;8.148;2023-06-04T08:56:43;23.60;35.90
19248;DHT22;9758;48.640;8.148;2023-06-04T08:59:10;23.70;35.90
19248;DHT22;9758;48.640;8.148;2023-06-04T09:01:39;23.70;35.70
19248;DHT22;9758;48.640;8.148;2023-06-04T09:04:10;23.80;35.70
19248;DHT22;9758;48.640;8.148;2023-06-04T09:06:39;23.80;35.70
19248;DHT22;9758;48.640;8.148;2023-06-04T09:09:09;23.90;35.70
19248;DHT22;9758;48.640;8.148;2023-06-04T09:11:41;23.90;35.60
19248;DHT22;9758;48.640;8.148;2023-06-04T09:14:08;24.00;35.60
19248;DHT22;9758;48.640;8.148;2023-06-04T09:16:43;24.10;35.50
19248;DHT22;9758;48.640;8.148;2023-06-04T09:19:10;24.20;35.40
19248;DHT22;9758;48.640;8.148;2023-06-04T09:21:47;24.20;35.30
19248;DHT22;9758;48.640;8.148;2023-06-04T09:24:13;24.30;35.30
19248;DHT22;9758;48.640;8.148;2023-06-04T09:26:41;24.30;35.20
19248;DHT22;9758;48.640;8.148;2023-06-04T09:29:09;24.40;35.30
19248;DHT22;9758;48.640;8.148;2023-06-04T09:31:36;24.50;35.20
19248;DHT22;9758;48.640;8.148;2023-06-04T09:34:04;24.70;35.10
19248;DHT22;9758;48.640;8.148;2023-06-04T09:36:32;24.80;35.10
19248;DHT22;9758;48.640;8.148;2023-06-04T09:39:01;24.80;35.00
19248;DHT22;9758;48.640;8.148;2023-06-04T09:41:28;24.80;35.00
19248;DHT22;9758;48.640;8.148;2023-06-04T09:44:01;24.90;34.90
19248;DHT22;9758;48.640;8.148;2023-06-04T09:46:29;24.90;34.90
19248;DHT22;9758;48.640;8.148;2023-06-04T09:49:00;25.00;34.90
19248;DHT22;9758;48.640;8.148;2023-06-04T09:51:28;25.00;34.80
19248;DHT22;9758;48.640;8.148;2023-06-04T09:53:56;25.10;34.90
19248;DHT22;9758;48.640;8.148;2023-06-04T09:56:24;25.10;34.70
19248;DHT22;9758;48.640;8.148;2023-06-04T09:58:54;25.10;34.70
19248;DHT22;9758;48.640;8.148;2023-06-04T10:01:23;25.20;34.80
19248;DHT22;9758;48.640;8.148;2023-06-04T10:03:51;25.10;34.60
19248;DHT22;9758;48.640;8.148;2023-06-04T10:06:19;25.10;34.70
19248;DHT22;9758;48.640;8.148;2023-06-04T10:08:46;25.10;35.30
19248;DHT22;9758;48.640;8.148;2023-06-04T10:11:18;25.00;34.60
19248;DHT22;9758;48.640;8.148;2023-06-04T10:13:52;25.00;34.70
19248;DHT22;9758;48.640;8.148;2023-06-04T10:16:19;25.00;35.30
19248;DHT22;9758;48.640;8.148;2023-06-04T10:18:48;25.10;34.80
19248;DHT22;9758;48.640;8.148;2023-06-04T10:21:17;25.10;34.80
19248;DHT22;9758;48.640;8.148;2023-06-04T10:23:44;25.20;34.90
19248;DHT22;9758;48.640;8.148;2023-06-04T10:26:13;25.30;34.80
19248;DHT22;9758;48.640;8.148;2023-06-04T10:28:41;25.30;34.70
19248;DHT22;9758;48.640;8.148;2023-06-04T10:31:09;25.40;34.70
19248;DHT22;9758;48.640;8.148;2023-06-04T10:33:36;25.50;34.70
19248;DHT22;9758;48.640;8.148;2023-06-04T10:36:17;25.50;34.60
19248;DHT22;9758;48.640;8.148;2023-06-04T10:38:51;25.50;34.60
19248;DHT22;9758;48.640;8.148;2023-06-04T10:41:20;25.60;34.60
19248;DHT22;9758;48.640;8.148;2023-06-04T10:43:49;25.60;34.50
19248;DHT22;9758;48.640;8.148;2023-06-04T10:46:17;25.70;34.60
19248;DHT22;9758;48.640;8.148;2023-06-04T10:48:48;25.80;34.40
19248;DHT22;9758;48.640;8.148;2023-06-04T10:51:28;25.90;34.40
19248;DHT22;9758;48.640;8.148;2023-06-04T10:53:55;25.90;34.40
19248;DHT22;9758;48.640;8.148;2023-06-04T10:56:25;26.00;34.40
19248;DHT22;9758;48.640;8.148;2023-06-04T10:58:52;26.00;34.30
19248;DHT22;9758;48.640;8.148;2023-06-04T11:01:23;26.10;34.20
19248;DHT22;9758;48.640;8.148;2023-06-04T11:03:51;26.20;34.10
19248;DHT22;9758;48.640;8.148;2023-06-04T11:06:19;26.20;33.90
19248;DHT22;9758;48.640;8.148;2023-06-04T11:08:46;26.20;34.10
19248;DHT22;9758;48.640;8.148;2023-06-04T11:11:14;26.20;34.10
19248;DHT22;9758;48.640;8.148;2023-06-04T11:13:41;26.20;34.10
19248;DHT22;9758;48.640;8.148;2023-06-04T11:16:15;26.30;33.90
19248;DHT22;9758;48.640;8.148;2023-06-04T11:18:42;26.40;33.70
19248;DHT22;9758;48.640;8.148;2023-06-04T11:21:09;26.40;34.40
19248;DHT22;9758;48.640;8.148;2023-06-04T11:23:38;26.50;33.90
19248;DHT22;9758;48.640;8.148;2023-06-04T11:26:05;26.50;33.70
19248;DHT22;9758;48.640;8.148;2023-06-04T11:28:32;26.60;33.70
19248;DHT22;9758;48.640;8.148;2023-06-04T11:30:59;26.70;33.70
19248;DHT22;9758;48.640;8.148;2023-06-04T11:33:28;26.80;33.60
19248;DHT22;9758;48.640;8.148;2023-06-04T11:35:55;26.90;33.20
19248;DHT22;9758;48.640;8.148;2023-06-04T11:38:21;27.00;33.40
19248;DHT22;9758;48.640;8.148;2023-06-04T11:40:57;27.00;33.30
19248;DHT22;9758;48.640;8.148;2023-06-04T11:43:24;27.10;33.30
19248;DHT22;9758;48.640;8.148;2023-06-04T11:45:50;27.20;33.40
19248;DHT22;9758;48.640;8.148;2023-06-04T11:48:17;27.30;33.30
19248;DHT22;9758;48.640;8.148;2023-06-04T11:50:44;27.40;33.20
19248;DHT22;9758;48.640;8.148;2023-06-04T11:53:11;27.60;33.00
19248;DHT22;9758;48.640;8.148;2023-06-04T11:55:38;27.60;33.00
19248;DHT22;9758;48.640;8.148;2023-06-04T11:58:06;27.70;33.00
19248;DHT22;9758;48.640;8.148;2023-06-04T12:00:35;27.80;32.80
19248;DHT22;9758;48.640;8.148;2023-06-04T12:03:02;27.80;32.60
19248;DHT22;9758;48.640;8.148;2023-06-04T12:05:29;27.90;32.70
19248;DHT22;9758;48.640;8.148;2023-06-04T12:08:04;27.90;32.60
19248;DHT22;9758;48.640;8.148;2023-06-04T12:10:36;28.00;32.50
19248;DHT22;9758;48.640;8.148;2023-06-04T12:13:04;28.10;32.60
19248;DHT22;9758;48.640;8.148;2023-06-04T12:15:32;28.10;32.50
19248;DHT22;9758;48.640;8.148;2023-06-04T12:17:58;28.20;32.50
19248;DHT22;9758;48.640;8.148;2023-06-04T12:20:35;28.30;32.40
19248;DHT22;9758;48.640;8.148;2023-06-04T12:23:03;28.30;32.40
19248;DHT22;9758;48.640;8.148;2023-06-04T12:25:30;28.40;32.20
19248;DHT22;9758;48.640;8.148;2023-06-04T12:27:57;28.40;32.20
19248;DHT22;9758;48.640;8.148;2023-06-04T12:30:36;28.40;32.20
19248;DHT22;9758;48.640;8.148;2023-06-04T12:33:03;28.40;31.90
19248;DHT22;9758;48.640;8.148;2023-06-04T12:35:30;28.30;31.90
19248;DHT22;9758;48.640;8.148;2023-06-04T12:37:56;28.20;32.00
19248;DHT22;9758;48.640;8.148;2023-06-04T12:40:23;28.10;31.70
19248;DHT22;9758;48.640;8.148;2023-06-04T12:42:50;28.00;32.00
19248;DHT22;9758;48.640;8.148;2023-06-04T12:45:17;27.90;32.20
19248;DHT22;9758;48.640;8.148;2023-06-04T12:47:45;27.90;32.30
19248;DHT22;9758;48.640;8.148;2023-06-04T12:50:12;27.90;32.30
19248;DHT22;9758;48.640;8.148;2023-06-04T12:52:39;28.00;32.20
19248;DHT22;9758;48.640;8.148;2023-06-04T12:55:07;28.00;32.10
19248;DHT22;9758;48.640;8.148;2023-06-04T12:57:34;28.00;31.60
19248;DHT22;9758;48.640;8.148;2023-06-04T13:00:01;28.00;32.00
19248;DHT22;9758;48.640;8.148;2023-06-04T13:02:29;28.10;31.90
19248;DHT22;9758;48.640;8.148;2023-06-04T13:04:57;28.10;31.90
19248;DHT22;9758;48.640;8.148;2023-06-04T13:07:24;28.10;31.80
19248;DHT22;9758;48.640;8.148;2023-06-04T13:09:51;28.10;31.80
19248;DHT22;9758;48.640;8.148;2023-06-04T13:12:18;28.10;31.90
19248;DHT22;9758;48.640;8.148;2023-06-04T13:14:44;28.10;31.90
19248;DHT22;9758;48.640;8.148;2023-06-04T13:17:11;28.20;31.70
19248;DHT22;9758;48.640;8.148;2023-06-04T13:19:38;28.30;31.70
19248;DHT22;9758;48.640;8.148;2023-06-04T13:22:06;28.30;31.70
19248;DHT22;9758;48.640;8.148;2023-06-04T13:24:34;28.30;31.40
19248;DHT22;9758;48.640;8.148;2023-06-04T13:27:01;28.40;31.70
19248;DHT22;9758;48.640;8.148;2023-06-04T13:29:28;28.50;31.70
19248;DHT22;9758;48.640;8.148;2023-06-04T13:31:58;28.60;31.80
19248;DHT22;9758;48.640;8.148;2023-06-04T13:34:25;28.70;31.40
19248;DHT22;9758;48.640;8.148;2023-06-04T13:36:52;28.80;31.30
19248;DHT22;9758;48.640;8.148;2023-06-04T13:39:20;28.90;31.30
19248;DHT22;9758;48.640;8.148;2023-06-04T13:41:47;28.90;31.40
19248;DHT22;9758;48.640;8.148;2023-06-04T13:44:14;29.00;31.10
19248;DHT22;9758;48.640;8.148;2023-06-04T13:46:41;29.00;31.00
19248;DHT22;9758;48.640;8.148;2023-06-04T13:49:07;29.10;31.90
19248;DHT22;9758;48.640;8.148;2023-06-04T13:51:34;29.20;31.10
19248;DHT22;9758;48.640;8.148;2023-06-04T13:54:01;29.20;31.00
19248;DHT22;9758;48.640;8.148;2023-06-04T13:56:29;29.30;31.00
19248;DHT22;9758;48.640;8.148;2023-06-04T13:58:56;29.30;31.00
19248;DHT22;9758;48.640;8.148;2023-06-04T14:01:23;29.40;31.10
19248;DHT22;9758;48.640;8.148;2023-06-04T14:03:50;29.50;30.90
19248;DHT22;9758;48.640;8.148;2023-06-04T14:06:17;29.60;30.70
19248;DHT22;9758;48.640;8.148;2023-06-04T14:08:44;29.60;30.80
19248;DHT22;9758;48.640;8.148;2023-06-04T14:11:10;29.60;30.60
19248;DHT22;9758;48.640;8.148;2023-06-04T14:13:38;29.60;30.90
19248;DHT22;9758;48.640;8.148;2023-06-04T14:16:06;29.60;30.70
19248;DHT22;9758;48.640;8.148;2023-06-04T14:18:39;29.60;30.70
19248;DHT22;9758;48.640;8.148;2023-06-04T14:21:06;29.60;30.50
19248;DHT22;9758;48.640;8.148;2023-06-04T14:23:32;29.60;30.40
19248;DHT22;9758;48.640;8.148;2023-06-04T14:25:59;29.60;30.10
19248;DHT22;9758;48.640;8.148;2023-06-04T14:28:26;29.60;30.50
19248;DHT22;9758;48.640;8.148;2023-06-04T14:30:55;29.60;30.60
19248;DHT22;9758;48.640;8.148;2023-06-04T14:33:23;29.60;30.50
19248;DHT22;9758;48.640;8.148;2023-06-04T14:35:49;29.70;30.60
19248;DHT22;9758;48.640;8.148;2023-06-04T14:38:17;29.80;30.40
19248;DHT22;9758;48.640;8.148;2023-06-04T14:40:43;29.80;30.00
19248;DHT22;9758;48.640;8.148;2023-06-04T14:43:11;29.80;30.00
19248;DHT22;9758;48.640;8.148;2023-06-04T14:45:37;29.80;30.00
19248;DHT22;9758;48.640;8.148;2023-06-04T14:48:06;29.80;30.20
19248;DHT22;9758;48.640;8.148;2023-06-04T14:50:33;29.80;30.30
19248;DHT22;9758;48.640;8.148;2023-06-04T14:53:00;29.90;30.20
19248;DHT22;9758;48.640;8.148;2023-06-04T14:55:26;29.90;29.90
19248;DHT22;9758;48.640;8.148;2023-06-04T14:57:53;29.80;29.70
19248;DHT22;9758;48.640;8.148;2023-06-04T15:00:20;29.80;30.00
19248;DHT22;9758;48.640;8.148;2023-06-04T15:02:46;29.70;30.00
19248;DHT22;9758;48.640;8.148;2023-06-04T15:05:15;29.80;30.80
19248;DHT22;9758;48.640;8.148;2023-06-04T15:07:41;29.90;29.50
19248;DHT22;9758;48.640;8.148;2023-06-04T15:10:08;29.90;29.90
19248;DHT22;9758;48.640;8.148;2023-06-04T15:13:42;29.90;30.00
19248;DHT22;9758;48.640;8.148;2023-06-04T15:16:09;30.00;29.90
19248;DHT22;9758;48.640;8.148;2023-06-04T15:18:36;30.10;30.00
19248;DHT22;9758;48.640;8.148;2023-06-04T15:21:02;30.20;29.80
19248;DHT22;9758;48.640;8.148;2023-06-04T15:23:29;30.20;29.00
19248;DHT22;9758;48.640;8.148;2023-06-04T15:25:56;30.00;29.50
19248;DHT22;9758;48.640;8.148;2023-06-04T15:28:23;30.00;29.70
19248;DHT22;9758;48.640;8.148;2023-06-04T15:30:51;30.10;29.70
19248;DHT22;9758;48.640;8.148;2023-06-04T15:33:18;30.50;29.70
19248;DHT22;9758;48.640;8.148;2023-06-04T15:35:44;31.00;29.70
19248;DHT22;9758;48.640;8.148;2023-06-04T15:38:11;31.50;29.70
19248;DHT22;9758;48.640;8.148;2023-06-04T15:40:38;32.10;29.70
19248;DHT22;9758;48.640;8.148;2023-06-04T15:43:04;33.00;29.90
19248;DHT22;9758;48.640;8.148;2023-06-04T15:45:31;34.00;29.70
19248;DHT22;9758;48.640;8.148;2023-06-04T15:47:59;35.10;29.40
19248;DHT22;9758;48.640;8.148;2023-06-04T15:50:26;36.20;29.00